sensor_id;sensor_type;location;lat;lon;timestamp;temperature;humidity
7998;DHT22;4044;49.814;7.828;2023-10-08T00:01:21;17.40;94.50
7998;DHT22;4044;49.814;7.828;2023-10-08T00:03:47;17.60;94.40
7998;DHT22;4044;49.814;7.828;2023-10-08T00:06:15;17.60;94.30
7998;DHT22;4044;49.814;7.828;2023-10-08T00:08:40;17.70;94.40
7998;DHT22;4044;49.814;7.828;2023-10-08T00:11:06;17.70;94.20
7998;DHT22;4044;49.814;7.828;2023-10-08T00:13:33;17.80;94.20
7998;DHT22;4044;49.814;7.828;2023-10-08T00:16:13;17.90;94.20
7998;DHT22;4044;49.814;7.828;2023-10-08T00:18:42;17.90;94.00
7998;DHT22;4044;49.814;7.828;2023-10-08T00:21:14;17.80;94.30
7998;DHT22;4044;49.814;7.828;2023-10-08T00:23:40;17.70;94.20
7998;DHT22;4044;49.814;7.828;2023-10-08T00:26:08;17.70;94.30
7998;DHT22;4044;49.814;7.828;2023-10-08T00:28:34;17.60;94.40
7998;DHT22;4044;49.814;7.828;2023-10-08T00:31:01;17.60;94.60
7998;DHT22;4044;49.814;7.828;2023-10-08T00:33:36;17.60;94.50
7998;DHT22;4044;49.814;7.828;2023-10-08T00:36:02;17.50;94.50
7998;DHT22;4044;49.814;7.828;2023-10-08T00:38:43;17.60;94.50
7998;DHT22;4044;49.814;7.828;2023-10-08T00:41:15;17.40;94.60
7998;DHT22;4044;49.814;7.828;2023-10-08T00:43:41;17.30;94.60
7998;DHT22;4044;49.814;7.828;2023-10-08T00:46:08;17.20;95.00
7998;DHT22;4044;49.814;7.828;2023-10-08T00:48:44;17.10;95.30
7998;DHT22;4044;49.814;7.828;2023-10-08T00:51:10;17.00;95.10
7998;DHT22;4044;49.814;7.828;2023-10-08T00:53:57;16.90;95.10
7998;DHT22;4044;49.814;7.828;2023-10-08T00:56:32;16.90;95.10
7998;DHT22;4044;49.814;7.828;2023-10-08T00:59:21;16.80;95.50
7998;DHT22;4044;49.814;7.828;2023-10-08T01:01:48;16.70;95.10
7998;DHT22;4044;49.814;7.828;2023-10-08T01:04:18;16.60;95.50
7998;DHT22;4044;49.814;7.828;2023-10-08T01:06:53;16.50;95.40
7998;DHT22;4044;49.814;7.828;2023-10-08T01:09:25;16.30;95.70
7998;DHT22;4044;49.814;7.828;2023-10-08T01:14:50;16.10;95.80
7998;DHT22;4044;49.814;7.828;2023-10-08T01:17:20;16.00;96.60
7998;DHT22;4044;49.814;7.828;2023-10-08T01:19:50;15.90;96.50
7998;DHT22;4044;49.814;7.828;2023-10-08T01:22:20;15.80;96.30
7998;DHT22;4044;49.814;7.828;2023-10-08T01:24:48;15.70;96.70
7998;DHT22;4044;49.814;7.828;2023-10-08T01:27:18;15.70;96.70
7998;DHT22;4044;49.814;7.828;2023-10-08T01:29:51;15.60;96.40
7998;DHT22;4044;49.814;7.828;2023-10-08T01:32:20;15.50;96.60
7998;DHT22;4044;49.814;7.828;2023-10-08T01:34:47;15.50;96.70
7998;DHT22;4044;49.814;7.828;2023-10-08T01:37:17;15.40;97.00
7998;DHT22;4044;49.814;7.828;2023-10-08T01:39:46;15.40;97.70
7998;DHT22;4044;49.814;7.828;2023-10-08T01:42:14;15.40;96.80
7998;DHT22;4044;49.814;7.828;2023-10-08T01:44:46;15.30;97.00
7998;DHT22;4044;49.814;7.828;2023-10-08T01:47:13;15.30;97.00
7998;DHT22;4044;49.814;7.828;2023-10-08T01:49:39;15.20;97.10
7998;DHT22;4044;49.814;7.828;2023-10-08T01:52:06;15.20;97.30
7998;DHT22;4044;49.814;7.828;2023-10-08T01:54:42;15.10;97.90
7998;DHT22;4044;49.814;7.828;2023-10-08T01:57:08;15.00;97.90
7998;DHT22;4044;49.814;7.828;2023-10-08T01:59:35;14.90;97.80
7998;DHT22;4044;49.814;7.828;2023-10-08T02:02:00;14.80;97.80
7998;DHT22;4044;49.814;7.828;2023-10-08T02:04:27;14.80;97.90
7998;DHT22;4044;49.814;7.828;2023-10-08T02:06:53;14.70;97.40
7998;DHT22;4044;49.814;7.828;2023-10-08T02:09:18;14.70;97.80
7998;DHT22;4044;49.814;7.828;2023-10-08T02:11:51;14.60;97.80
7998;DHT22;4044;49.814;7.828;2023-10-08T02:14:19;14.50;98.00
7998;DHT22;4044;49.814;7.828;2023-10-08T02:16:46;14.40;98.40
7998;DHT22;4044;49.814;7.828;2023-10-08T02:19:13;14.30;98.30
7998;DHT22;4044;49.814;7.828;2023-10-08T02:21:39;14.30;98.60
7998;DHT22;4044;49.814;7.828;2023-10-08T02:24:12;14.30;98.70
7998;DHT22;4044;49.814;7.828;2023-10-08T02:26:38;14.40;99.20
7998;DHT22;4044;49.814;7.828;2023-10-08T02:29:04;14.30;99.20
7998;DHT22;4044;49.814;7.828;2023-10-08T02:31:37;14.30;99.10
7998;DHT22;4044;49.814;7.828;2023-10-08T02:34:07;14.20;99.20
7998;DHT22;4044;49.814;7.828;2023-10-08T02:36:34;14.20;99.40
7998;DHT22;4044;49.814;7.828;2023-10-08T02:39:02;14.20;99.90
7998;DHT22;4044;49.814;7.828;2023-10-08T02:41:31;14.20;99.80
7998;DHT22;4044;49.814;7.828;2023-10-08T02:43:57;14.20;99.90
7998;DHT22;4044;49.814;7.828;2023-10-08T02:46:24;14.10;99.80
7998;DHT22;4044;49.814;7.828;2023-10-08T02:48:52;14.10;99.50
7998;DHT22;4044;49.814;7.828;2023-10-08T02:51:18;14.00;99.90
7998;DHT22;4044;49.814;7.828;2023-10-08T02:53:46;14.00;99.90
7998;DHT22;4044;49.814;7.828;2023-10-08T02:56:12;14.00;99.90
7998;DHT22;4044;49.814;7.828;2023-10-08T02:58:42;13.90;99.50
7998;DHT22;4044;49.814;7.828;2023-10-08T03:01:12;13.90;99.90
7998;DHT22;4044;49.814;7.828;2023-10-08T03:03:41;13.90;99.70
7998;DHT22;4044;49.814;7.828;2023-10-08T03:06:07;13.90;99.60
7998;DHT22;4044;49.814;7.828;2023-10-08T03:08:37;13.80;99.90
7998;DHT22;4044;49.814;7.828;2023-10-08T03:11:05;13.70;99.90
7998;DHT22;4044;49.814;7.828;2023-10-08T03:13:32;13.50;99.90
7998;DHT22;4044;49.814;7.828;2023-10-08T03:15:57;13.50;99.90
7998;DHT22;4044;49.814;7.828;2023-10-08T03:18:33;13.50;99.90
7998;DHT22;4044;49.814;7.828;2023-10-08T03:21:03;13.50;99.90
7998;DHT22;4044;49.814;7.828;2023-10-08T03:23:30;13.50;99.90
7998;DHT22;4044;49.814;7.828;2023-10-08T03:26:00;13.50;99.90
7998;DHT22;4044;49.814;7.828;2023-10-08T03:28:35;13.50;99.90
7998;DHT22;4044;49.814;7.828;2023-10-08T03:31:01;13.50;99.90
7998;DHT22;4044;49.814;7.828;2023-10-08T03:33:31;13.50;99.90
7998;DHT22;4044;49.814;7.828;2023-10-08T03:36:00;13.50;99.90
7998;DHT22;4044;49.814;7.828;2023-10-08T03:38:29;13.50;99.90
7998;DHT22;4044;49.814;7.828;2023-10-08T03:41:16;13.60;99.90
7998;DHT22;4044;49.814;7.828;2023-10-08T03:43:45;13.60;99.90
7998;DHT22;4044;49.814;7.828;2023-10-08T03:46:32;13.60;99.90
7998;DHT22;4044;49.814;7.828;2023-10-08T03:49:08;13.60;99.90
7998;DHT22;4044;49.814;7.828;2023-10-08T03:51:40;13.60;99.90
7998;DHT22;4044;49.814;7.828;2023-10-08T03:54:06;13.60;99.90
7998;DHT22;4044;49.814;7.828;2023-10-08T03:56:44;13.60;99.90
7998;DHT22;4044;49.814;7.828;2023-10-08T03:59:17;13.60;99.90
7998;DHT22;4044;49.814;7.828;2023-10-08T04:01:46;13.60;99.90
7998;DHT22;4044;49.814;7.828;2023-10-08T04:04:15;13.50;99.90
7998;DHT22;4044;49.814;7.828;2023-10-08T04:06:41;13.40;99.90
7998;DHT22;4044;49.814;7.828;2023-10-08T04:09:15;13.30;99.90
7998;DHT22;4044;49.814;7.828;2023-10-08T04:11:50;13.30;99.90
7998;DHT22;4044;49.814;7.828;2023-10-08T04:14:17;13.30;99.90
7998;DHT22;4044;49.814;7.828;2023-10-08T04:16:43;13.30;99.90
7998;DHT22;4044;49.814;7.828;2023-10-08T04:19:12;13.30;99.90
7998;DHT22;4044;49.814;7.828;2023-10-08T04:21:38;13.20;99.90
7998;DHT22;4044;49.814;7.828;2023-10-08T04:24:07;13.20;99.90
7998;DHT22;4044;49.814;7.828;2023-10-08T04:26:37;13.20;99.90
7998;DHT22;4044;49.814;7.828;2023-10-08T04:29:05;13.20;99.90
7998;DHT22;4044;49.814;7.828;2023-10-08T04:31:35;13.10;99.90
7998;DHT22;4044;49.814;7.828;2023-10-08T04:34:07;13.10;99.90
7998;DHT22;4044;49.814;7.828;2023-10-08T04:36:43;13.10;99.90
7998;DHT22;4044;49.814;7.828;2023-10-08T04:39:14;13.10;99.90
7998;DHT22;4044;49.814;7.828;2023-10-08T04:41:47;13.10;99.90
7998;DHT22;4044;49.814;7.828;2023-10-08T04:44:17;13.10;99.90
7998;DHT22;4044;49.814;7.828;2023-10-08T04:46:44;13.20;99.90
7998;DHT22;4044;49.814;7.828;2023-10-08T04:49:14;13.20;99.90
7998;DHT22;4044;49.814;7.828;2023-10-08T04:51:54;13.20;99.90
7998;DHT22;4044;49.814;7.828;2023-10-08T04:54:23;13.30;99.90
7998;DHT22;4044;49.814;7.828;2023-10-08T04:56:49;13.40;99.90
7998;DHT22;4044;49.814;7.828;2023-10-08T04:59:14;13.50;99.90
7998;DHT22;4044;49.814;7.828;2023-10-08T05:01:45;13.70;99.90
7998;DHT22;4044;49.814;7.828;2023-10-08T05:04:22;13.80;99.90
7998;DHT22;4044;49.814;7.828;2023-10-08T05:06:58;13.90;99.90
7998;DHT22;4044;49.814;7.828;2023-10-08T05:09:42;14.00;99.90
7998;DHT22;4044;49.814;7.828;2023-10-08T05:12:17;14.10;99.90
7998;DHT22;4044;49.814;7.828;2023-10-08T05:14:59;14.10;99.90
7998;DHT22;4044;49.814;7.828;2023-10-08T05:17:44;14.20;99.90
7998;DHT22;4044;49.814;7.828;2023-10-08T05:20:23;14.30;99.90
7998;DHT22;4044;49.814;7.828;2023-10-08T05:22:55;14.20;99.90
7998;DHT22;4044;49.814;7.828;2023-10-08T05:25:31;14.20;99.90
7998;DHT22;4044;49.814;7.828;2023-10-08T05:28:19;14.20;99.90
7998;DHT22;4044;49.814;7.828;2023-10-08T05:30:50;14.20;99.90
7998;DHT22;4044;49.814;7.828;2023-10-08T05:33:20;14.20;99.90
7998;DHT22;4044;49.814;7.828;2023-10-08T05:35:50;14.20;99.90
7998;DHT22;4044;49.814;7.828;2023-10-08T05:38:21;14.20;99.90
7998;DHT22;4044;49.814;7.828;2023-10-08T05:40:59;14.10;99.90
7998;DHT22;4044;49.814;7.828;2023-10-08T05:43:32;14.10;99.90
7998;DHT22;4044;49.814;7.828;2023-10-08T05:48:51;14.20;99.90
7998;DHT22;4044;49.814;7.828;2023-10-08T05:51:49;14.20;99.90
7998;DHT22;4044;49.814;7.828;2023-10-08T05:54:19;14.30;99.90
7998;DHT22;4044;49.814;7.828;2023-10-08T05:56:52;14.40;99.90
7998;DHT22;4044;49.814;7.828;2023-10-08T05:59:33;14.40;99.90
7998;DHT22;4044;49.814;7.828;2023-10-08T06:02:21;14.50;99.90
7998;DHT22;4044;49.814;7.828;2023-10-08T06:05:00;14.60;99.90
7998;DHT22;4044;49.814;7.828;2023-10-08T06:07:51;14.70;99.90
7998;DHT22;4044;49.814;7.828;2023-10-08T06:10:29;14.70;99.90
7998;DHT22;4044;49.814;7.828;2023-10-08T06:13:01;14.80;99.90
7998;DHT22;4044;49.814;7.828;2023-10-08T06:15:44;14.80;99.90
7998;DHT22;4044;49.814;7.828;2023-10-08T06:18:10;14.90;99.90
7998;DHT22;4044;49.814;7.828;2023-10-08T06:20:37;14.90;99.90
7998;DHT22;4044;49.814;7.828;2023-10-08T06:23:05;15.00;99.90
7998;DHT22;4044;49.814;7.828;2023-10-08T06:25:33;15.00;99.90
7998;DHT22;4044;49.814;7.828;2023-10-08T06:28:16;15.10;99.90
7998;DHT22;4044;49.814;7.828;2023-10-08T06:30:45;15.10;99.90
7998;DHT22;4044;49.814;7.828;2023-10-08T06:33:11;15.20;99.90
7998;DHT22;4044;49.814;7.828;2023-10-08T06:35:37;15.20;99.90
7998;DHT22;4044;49.814;7.828;2023-10-08T06:38:02;15.30;99.90
7998;DHT22;4044;49.814;7.828;2023-10-08T06:40:35;15.40;99.90
7998;DHT22;4044;49.814;7.828;2023-10-08T06:43:04;15.50;99.90
7998;DHT22;4044;49.814;7.828;2023-10-08T06:45:47;15.50;99.90
7998;DHT22;4044;49.814;7.828;2023-10-08T06:48:14;15.60;99.90
7998;DHT22;4044;49.814;7.828;2023-10-08T06:50:47;15.70;99.90
7998;DHT22;4044;49.814;7.828;2023-10-08T06:53:13;15.70;99.90
7998;DHT22;4044;49.814;7.828;2023-10-08T06:55:43;15.80;99.90
7998;DHT22;4044;49.814;7.828;2023-10-08T06:58:09;15.90;99.90
7998;DHT22;4044;49.814;7.828;2023-10-08T07:00:37;16.00;99.90
7998;DHT22;4044;49.814;7.828;2023-10-08T07:03:05;16.10;99.90
7998;DHT22;4044;49.814;7.828;2023-10-08T07:05:34;16.20;99.90
7998;DHT22;4044;49.814;7.828;2023-10-08T07:08:07;16.40;99.90
7998;DHT22;4044;49.814;7.828;2023-10-08T07:10:33;16.30;99.90
7998;DHT22;4044;49.814;7.828;2023-10-08T07:13:01;16.40;99.70
7998;DHT22;4044;49.814;7.828;2023-10-08T07:15:34;16.40;99.60
7998;DHT22;4044;49.814;7.828;2023-10-08T07:18:04;16.50;99.50
7998;DHT22;4044;49.814;7.828;2023-10-08T07:20:36;16.60;99.50
7998;DHT22;4044;49.814;7.828;2023-10-08T07:23:11;16.70;99.30
7998;DHT22;4044;49.814;7.828;2023-10-08T07:25:54;16.90;99.00
7998;DHT22;4044;49.814;7.828;2023-10-08T07:28:25;16.90;98.70
7998;DHT22;4044;49.814;7.828;2023-10-08T07:30:52;17.00;98.70
7998;DHT22;4044;49.814;7.828;2023-10-08T07:33:18;17.10;99.10
7998;DHT22;4044;49.814;7.828;2023-10-08T07:35:47;17.10;99.00
7998;DHT22;4044;49.814;7.828;2023-10-08T07:38:37;17.30;98.90
7998;DHT22;4044;49.814;7.828;2023-10-08T07:41:03;17.30;98.70
7998;DHT22;4044;49.814;7.828;2023-10-08T07:43:31;17.30;98.40
7998;DHT22;4044;49.814;7.828;2023-10-08T07:45:58;17.40;98.40
7998;DHT22;4044;49.814;7.828;2023-10-08T07:48:23;17.40;98.10
7998;DHT22;4044;49.814;7.828;2023-10-08T07:50:55;17.50;97.90
7998;DHT22;4044;49.814;7.828;2023-10-08T07:53:22;17.60;98.00
7998;DHT22;4044;49.814;7.828;2023-10-08T07:55:50;17.70;98.00
7998;DHT22;4044;49.814;7.828;2023-10-08T07:58:17;17.80;97.90
7998;DHT22;4044;49.814;7.828;2023-10-08T08:00:44;17.90;97.70
7998;DHT22;4044;49.814;7.828;2023-10-08T08:03:20;18.00;97.50
7998;DHT22;4044;49.814;7.828;2023-10-08T08:05:47;18.10;97.00
7998;DHT22;4044;49.814;7.828;2023-10-08T08:08:13;18.20;97.20
7998;DHT22;4044;49.814;7.828;2023-10-08T08:10:43;18.30;97.00
7998;DHT22;4044;49.814;7.828;2023-10-08T08:13:09;18.30;97.20
7998;DHT22;4044;49.814;7.828;2023-10-08T08:15:35;18.40;97.20
7998;DHT22;4044;49.814;7.828;2023-10-08T08:18:09;18.50;97.20
7998;DHT22;4044;49.814;7.828;2023-10-08T08:20:44;18.70;96.80
7998;DHT22;4044;49.814;7.828;2023-10-08T08:23:09;18.80;96.70
7998;DHT22;4044;49.814;7.828;2023-10-08T08:25:39;18.90;96.20
7998;DHT22;4044;49.814;7.828;2023-10-08T08:28:12;19.20;96.50
7998;DHT22;4044;49.814;7.828;2023-10-08T08:30:47;19.30;96.20
7998;DHT22;4044;49.814;7.828;2023-10-08T08:33:13;19.50;95.70
7998;DHT22;4044;49.814;7.828;2023-10-08T08:35:47;19.50;95.80
7998;DHT22;4044;49.814;7.828;2023-10-08T08:38:13;19.60;95.10
7998;DHT22;4044;49.814;7.828;2023-10-08T08:40:39;19.80;95.30
7998;DHT22;4044;49.814;7.828;2023-10-08T08:43:05;19.80;94.80
7998;DHT22;4044;49.814;7.828;2023-10-08T08:45:31;19.80;94.00
7998;DHT22;4044;49.814;7.828;2023-10-08T08:47:59;19.80;94.70
7998;DHT22;4044;49.814;7.828;2023-10-08T08:50:25;19.90;95.00
7998;DHT22;4044;49.814;7.828;2023-10-08T08:52:52;20.00;95.30
7998;DHT22;4044;49.814;7.828;2023-10-08T08:55:18;20.20;95.10
7998;DHT22;4044;49.814;7.828;2023-10-08T08:57:47;20.20;94.20
7998;DHT22;4044;49.814;7.828;2023-10-08T09:00:15;20.30;94.20
7998;DHT22;4044;49.814;7.828;2023-10-08T09:02:47;20.30;94.00
7998;DHT22;4044;49.814;7.828;2023-10-08T09:05:13;20.20;92.00
7998;DHT22;4044;49.814;7.828;2023-10-08T09:08:03;20.10;92.70
7998;DHT22;4044;49.814;7.828;2023-10-08T09:10:30;20.00;93.40
7998;DHT22;4044;49.814;7.828;2023-10-08T09:13:06;19.90;92.40
7998;DHT22;4044;49.814;7.828;2023-10-08T09:15:33;19.80;93.10
7998;DHT22;4044;49.814;7.828;2023-10-08T09:17:59;19.90;93.20
7998;DHT22;4044;49.814;7.828;2023-10-08T09:20:30;19.90;92.30
7998;DHT22;4044;49.814;7.828;2023-10-08T09:23:13;19.90;92.90
7998;DHT22;4044;49.814;7.828;2023-10-08T09:25:40;20.00;92.80
7998;DHT22;4044;49.814;7.828;2023-10-08T09:28:06;20.10;93.40
7998;DHT22;4044;49.814;7.828;2023-10-08T09:30:36;20.30;93.60
7998;DHT22;4044;49.814;7.828;2023-10-08T09:33:11;20.40;92.90
7998;DHT22;4044;49.814;7.828;2023-10-08T09:35:38;20.00;92.10
7998;DHT22;4044;49.814;7.828;2023-10-08T09:38:05;19.90;92.90
7998;DHT22;4044;49.814;7.828;2023-10-08T09:40:38;19.90;93.20
7998;DHT22;4044;49.814;7.828;2023-10-08T09:43:04;19.90;93.20
7998;DHT22;4044;49.814;7.828;2023-10-08T09:45:30;19.80;91.50
7998;DHT22;4044;49.814;7.828;2023-10-08T09:47:56;19.80;92.00
7998;DHT22;4044;49.814;7.828;2023-10-08T09:50:28;19.90;92.70
7998;DHT22;4044;49.814;7.828;2023-10-08T09:53:10;19.80;92.70
7998;DHT22;4044;49.814;7.828;2023-10-08T09:55:46;19.80;92.00
7998;DHT22;4044;49.814;7.828;2023-10-08T09:58:15;19.60;92.20
7998;DHT22;4044;49.814;7.828;2023-10-08T10:00:42;19.80;93.00
7998;DHT22;4044;49.814;7.828;2023-10-08T10:03:10;19.80;92.50
7998;DHT22;4044;49.814;7.828;2023-10-08T10:05:38;20.00;92.70
7998;DHT22;4044;49.814;7.828;2023-10-08T10:08:04;20.10;92.80
7998;DHT22;4044;49.814;7.828;2023-10-08T10:10:36;20.20;92.00
7998;DHT22;4044;49.814;7.828;2023-10-08T10:13:05;20.50;92.20
7998;DHT22;4044;49.814;7.828;2023-10-08T10:15:42;20.70;91.60
7998;DHT22;4044;49.814;7.828;2023-10-08T10:18:28;20.80;91.40
7998;DHT22;4044;49.814;7.828;2023-10-08T10:23:39;21.00;90.80
7998;DHT22;4044;49.814;7.828;2023-10-08T10:26:30;21.40;91.00
7998;DHT22;4044;49.814;7.828;2023-10-08T10:31:38;21.60;86.70
7998;DHT22;4044;49.814;7.828;2023-10-08T10:34:07;21.80;89.60
7998;DHT22;4044;49.814;7.828;2023-10-08T10:36:37;22.00;89.20
7998;DHT22;4044;49.814;7.828;2023-10-08T10:39:03;22.30;86.90
7998;DHT22;4044;49.814;7.828;2023-10-08T10:41:52;22.30;85.00
7998;DHT22;4044;49.814;7.828;2023-10-08T10:44:27;22.40;86.90
7998;DHT22;4044;49.814;7.828;2023-10-08T10:46:55;22.40;85.70
7998;DHT22;4044;49.814;7.828;2023-10-08T10:49:39;22.50;84.90
7998;DHT22;4044;49.814;7.828;2023-10-08T10:52:23;22.60;86.00
7998;DHT22;4044;49.814;7.828;2023-10-08T10:55:10;22.40;86.80
7998;DHT22;4044;49.814;7.828;2023-10-08T11:00:20;22.80;88.00
7998;DHT22;4044;49.814;7.828;2023-10-08T11:02:58;23.00;88.10
7998;DHT22;4044;49.814;7.828;2023-10-08T11:05:42;23.10;87.10
7998;DHT22;4044;49.814;7.828;2023-10-08T11:08:13;23.10;84.50
7998;DHT22;4044;49.814;7.828;2023-10-08T11:10:41;23.00;84.50
7998;DHT22;4044;49.814;7.828;2023-10-08T11:13:13;23.00;86.20
7998;DHT22;4044;49.814;7.828;2023-10-08T11:15:50;23.20;85.60
7998;DHT22;4044;49.814;7.828;2023-10-08T11:18:21;23.30;86.10
7998;DHT22;4044;49.814;7.828;2023-10-08T11:20:48;23.50;85.80
7998;DHT22;4044;49.814;7.828;2023-10-08T11:23:36;23.70;84.30
7998;DHT22;4044;49.814;7.828;2023-10-08T11:26:03;24.00;83.90
7998;DHT22;4044;49.814;7.828;2023-10-08T11:28:40;24.20;84.00
7998;DHT22;4044;49.814;7.828;2023-10-08T11:31:12;24.30;83.80
7998;DHT22;4044;49.814;7.828;2023-10-08T11:33:42;24.40;84.20
7998;DHT22;4044;49.814;7.828;2023-10-08T11:36:17;24.70;84.20
7998;DHT22;4044;49.814;7.828;2023-10-08T11:38:46;25.00;84.50
7998;DHT22;4044;49.814;7.828;2023-10-08T11:41:16;25.40;83.50
7998;DHT22;4044;49.814;7.828;2023-10-08T11:43:52;25.50;81.70
7998;DHT22;4044;49.814;7.828;2023-10-08T11:46:31;25.70;81.80
7998;DHT22;4044;49.814;7.828;2023-10-08T11:49:04;26.10;81.30
7998;DHT22;4044;49.814;7.828;2023-10-08T11:51:34;26.10;79.50
7998;DHT22;4044;49.814;7.828;2023-10-08T11:54:03;25.90;77.50
7998;DHT22;4044;49.814;7.828;2023-10-08T11:56:31;25.90;77.50
7998;DHT22;4044;49.814;7.828;2023-10-08T11:58:59;26.30;80.30
7998;DHT22;4044;49.814;7.828;2023-10-08T12:01:27;26.90;80.10
7998;DHT22;4044;49.814;7.828;2023-10-08T12:03:53;27.40;79.40
7998;DHT22;4044;49.814;7.828;2023-10-08T12:06:25;27.80;78.20
7998;DHT22;4044;49.814;7.828;2023-10-08T12:08:50;27.70;74.80
7998;DHT22;4044;49.814;7.828;2023-10-08T12:11:19;27.90;74.20
7998;DHT22;4044;49.814;7.828;2023-10-08T12:13:44;28.30;76.30
7998;DHT22;4044;49.814;7.828;2023-10-08T12:16:12;28.90;75.70
7998;DHT22;4044;49.814;7.828;2023-10-08T12:18:43;29.10;74.70
7998;DHT22;4044;49.814;7.828;2023-10-08T12:21:09;29.70;74.50
7998;DHT22;4044;49.814;7.828;2023-10-08T12:23:40;29.80;68.10
7998;DHT22;4044;49.814;7.828;2023-10-08T12:26:09;30.20;70.60
7998;DHT22;4044;49.814;7.828;2023-10-08T12:28:35;30.60;70.90
7998;DHT22;4044;49.814;7.828;2023-10-08T12:31:02;30.90;70.40
7998;DHT22;4044;49.814;7.828;2023-10-08T12:33:29;31.20;69.60
7998;DHT22;4044;49.814;7.828;2023-10-08T12:35:55;31.70;68.20
7998;DHT22;4044;49.814;7.828;2023-10-08T12:38:24;31.70;63.90
7998;DHT22;4044;49.814;7.828;2023-10-08T12:40:53;32.20;66.00
7998;DHT22;4044;49.814;7.828;2023-10-08T12:43:19;32.60;67.10
7998;DHT22;4044;49.814;7.828;2023-10-08T12:45:46;32.40;60.80
7998;DHT22;4044;49.814;7.828;2023-10-08T12:48:20;32.90;64.30
7998;DHT22;4044;49.814;7.828;2023-10-08T12:50:47;33.20;63.90
7998;DHT22;4044;49.814;7.828;2023-10-08T12:53:20;33.10;63.50
7998;DHT22;4044;49.814;7.828;2023-10-08T12:55:49;33.30;65.00
7998;DHT22;4044;49.814;7.828;2023-10-08T12:58:21;33.70;64.30
7998;DHT22;4044;49.814;7.828;2023-10-08T13:00:54;33.70;61.90
7998;DHT22;4044;49.814;7.828;2023-10-08T13:03:26;33.30;60.80
7998;DHT22;4044;49.814;7.828;2023-10-08T13:05:56;33.00;63.70
7998;DHT22;4044;49.814;7.828;2023-10-08T13:08:32;33.00;64.60
7998;DHT22;4044;49.814;7.828;2023-10-08T13:10:59;32.80;64.50
7998;DHT22;4044;49.814;7.828;2023-10-08T13:13:28;32.60;64.50
7998;DHT22;4044;49.814;7.828;2023-10-08T13:15:54;31.90;62.50
7998;DHT22;4044;49.814;7.828;2023-10-08T13:18:24;31.60;64.50
7998;DHT22;4044;49.814;7.828;2023-10-08T13:20:53;31.20;65.40
7998;DHT22;4044;49.814;7.828;2023-10-08T13:23:20;31.00;66.40
7998;DHT22;4044;49.814;7.828;2023-10-08T13:25:53;30.90;67.30
7998;DHT22;4044;49.814;7.828;2023-10-08T13:28:24;30.90;65.20
7998;DHT22;4044;49.814;7.828;2023-10-08T13:30:53;30.70;66.00
7998;DHT22;4044;49.814;7.828;2023-10-08T13:33:20;30.50;67.10
7998;DHT22;4044;49.814;7.828;2023-10-08T13:35:50;30.00;67.90
7998;DHT22;4044;49.814;7.828;2023-10-08T13:38:17;29.40;68.70
7998;DHT22;4044;49.814;7.828;2023-10-08T13:40:48;29.10;70.10
7998;DHT22;4044;49.814;7.828;2023-10-08T13:43:34;28.90;70.50
7998;DHT22;4044;49.814;7.828;2023-10-08T13:46:03;28.70;70.80
7998;DHT22;4044;49.814;7.828;2023-10-08T13:48:34;28.60;71.10
7998;DHT22;4044;49.814;7.828;2023-10-08T13:51:04;28.60;71.40
7998;DHT22;4044;49.814;7.828;2023-10-08T13:53:33;28.50;71.20
7998;DHT22;4044;49.814;7.828;2023-10-08T13:56:02;28.60;72.00
7998;DHT22;4044;49.814;7.828;2023-10-08T13:58:30;28.60;70.80
7998;DHT22;4044;49.814;7.828;2023-10-08T14:00:57;28.70;70.50
7998;DHT22;4044;49.814;7.828;2023-10-08T14:03:26;28.60;71.40
7998;DHT22;4044;49.814;7.828;2023-10-08T14:05:51;28.70;71.60
7998;DHT22;4044;49.814;7.828;2023-10-08T14:08:20;28.70;71.50
7998;DHT22;4044;49.814;7.828;2023-10-08T14:10:47;28.70;71.10
7998;DHT22;4044;49.814;7.828;2023-10-08T14:13:15;28.80;71.50
7998;DHT22;4044;49.814;7.828;2023-10-08T14:15:47;28.80;70.30
7998;DHT22;4044;49.814;7.828;2023-10-08T14:18:24;28.90;69.60
7998;DHT22;4044;49.814;7.828;2023-10-08T14:20:55;29.40;69.80
7998;DHT22;4044;49.814;7.828;2023-10-08T14:23:22;29.90;69.10
7998;DHT22;4044;49.814;7.828;2023-10-08T14:25:51;30.30;67.50
7998;DHT22;4044;49.814;7.828;2023-10-08T14:28:18;30.80;68.30
7998;DHT22;4044;49.814;7.828;2023-10-08T14:31:03;31.30;65.30
7998;DHT22;4044;49.814;7.828;2023-10-08T14:33:35;31.70;64.70
7998;DHT22;4044;49.814;7.828;2023-10-08T14:36:09;31.50;65.10
7998;DHT22;4044;49.814;7.828;2023-10-08T14:38:53;31.30;64.90
7998;DHT22;4044;49.814;7.828;2023-10-08T14:41:37;30.80;66.00
7998;DHT22;4044;49.814;7.828;2023-10-08T14:44:21;30.40;65.60
7998;DHT22;4044;49.814;7.828;2023-10-08T14:46:46;30.00;67.20
7998;DHT22;4044;49.814;7.828;2023-10-08T14:49:12;29.60;67.90
7998;DHT22;4044;49.814;7.828;2023-10-08T14:51:38;29.40;68.50
7998;DHT22;4044;49.814;7.828;2023-10-08T14:54:06;29.10;68.80
7998;DHT22;4044;49.814;7.828;2023-10-08T14:56:33;29.00;68.50
7998;DHT22;4044;49.814;7.828;2023-10-08T14:58:59;29.00;68.90
7998;DHT22;4044;49.814;7.828;2023-10-08T15:01:25;29.10;69.10
7998;DHT22;4044;49.814;7.828;2023-10-08T15:03:51;29.30;69.30
7998;DHT22;4044;49.814;7.828;2023-10-08T15:06:17;29.10;69.90
7998;DHT22;4044;49.814;7.828;2023-10-08T15:08:44;29.20;69.40
7998;DHT22;4044;49.814;7.828;2023-10-08T15:11:10;29.20;69.80
7998;DHT22;4044;49.814;7.828;2023-10-08T15:13:36;29.30;69.40
7998;DHT22;4044;49.814;7.828;2023-10-08T15:16:04;29.40;68.40
7998;DHT22;4044;49.814;7.828;2023-10-08T15:18:30;29.60;68.70
7998;DHT22;4044;49.814;7.828;2023-10-08T15:20:57;29.70;68.50
7998;DHT22;4044;49.814;7.828;2023-10-08T15:23:23;29.90;68.50
7998;DHT22;4044;49.814;7.828;2023-10-08T15:25:53;29.70;67.20
7998;DHT22;4044;49.814;7.828;2023-10-08T15:28:18;29.60;69.20
7998;DHT22;4044;49.814;7.828;2023-10-08T15:30:44;29.40;69.20
7998;DHT22;4044;49.814;7.828;2023-10-08T15:33:10;29.40;69.90
7998;DHT22;4044;49.814;7.828;2023-10-08T15:35:37;29.10;70.30
7998;DHT22;4044;49.814;7.828;2023-10-08T15:38:03;29.00;70.50
7998;DHT22;4044;49.814;7.828;2023-10-08T15:40:29;28.80;70.60
7998;DHT22;4044;49.814;7.828;2023-10-08T15:42:56;28.50;70.50
7998;DHT22;4044;49.814;7.828;2023-10-08T15:45:23;28.30;71.60
7998;DHT22;4044;49.814;7.828;2023-10-08T15:47:50;28.10;72.00
7998;DHT22;4044;49.814;7.828;2023-10-08T15:50:16;28.10;72.10
7998;DHT22;4044;49.814;7.828;2023-10-08T15:52:45;28.00;72.80
7998;DHT22;4044;49.814;7.828;2023-10-08T15:55:13;28.00;72.80
7998;DHT22;4044;49.814;7.828;2023-10-08T15:57:38;27.80;74.70
7998;DHT22;4044;49.814;7.828;2023-10-08T16:00:06;27.60;75.20
7998;DHT22;4044;49.814;7.828;2023-10-08T16:02:33;27.50;75.50
7998;DHT22;4044;49.814;7.828;2023-10-08T16:04:59;27.50;76.10
7998;DHT22;4044;49.814;7.828;2023-10-08T16:07:24;27.50;75.90
7998;DHT22;4044;49.814;7.828;2023-10-08T16:09:50;27.60;76.30
7998;DHT22;4044;49.814;7.828;2023-10-08T16:12:15;27.70;76.60
7998;DHT22;4044;49.814;7.828;2023-10-08T16:14:43;27.60;77.60
7998;DHT22;4044;49.814;7.828;2023-10-08T16:17:10;27.30;77.90
7998;DHT22;4044;49.814;7.828;2023-10-08T16:19:38;27.00;78.00
7998;DHT22;4044;49.814;7.828;2023-10-08T16:22:04;26.70;77.90
7998;DHT22;4044;49.814;7.828;2023-10-08T16:24:29;26.40;78.30
7998;DHT22;4044;49.814;7.828;2023-10-08T16:26:55;26.20;79.10
7998;DHT22;4044;49.814;7.828;2023-10-08T16:29:21;25.90;80.60
7998;DHT22;4044;49.814;7.828;2023-10-08T16:31:47;25.80;80.50
7998;DHT22;4044;49.814;7.828;2023-10-08T16:34:14;25.50;79.40
7998;DHT22;4044;49.814;7.828;2023-10-08T16:36:41;25.30;80.30